createdAt,value
2023-02-14T00:00:00.424Z,1021.47
2023-02-14T00:00:10.512Z,1021.47
2023-02-14T00:00:20.432Z,1021.47
2023-02-14T00:00:30.420Z,1021.50
2023-02-14T00:00:40.427Z,1021.46
2023-02-14T00:00:50.959Z,1021.41
2023-02-14T00:01:00.780Z,1021.45
2023-02-14T00:01:10.434Z,1021.46
2023-02-14T00:01:20.403Z,1021.44
2023-02-14T00:01:30.445Z,1021.46
2023-02-14T00:01:40.409Z,1021.45
2023-02-14T00:01:50.402Z,1021.47
2023-02-14T00:02:01.061Z,1021.45
2023-02-14T00:02:10.459Z,1021.40
2023-02-14T00:02:20.442Z,1021.44
2023-02-14T00:02:30.582Z,1021.48
2023-02-14T00:02:40.457Z,1021.42
2023-02-14T00:02:50.521Z,1021.44
2023-02-14T00:03:00.505Z,1021.43
2023-02-14T00:03:10.517Z,1021.40
2023-02-14T00:03:20.396Z,1021.42
2023-02-14T00:03:30.419Z,1021.42
2023-02-14T00:03:40.588Z,1021.42
2023-02-14T00:03:50.397Z,1021.42
2023-02-14T00:04:00.399Z,1021.38
2023-02-14T00:04:10.428Z,1021.39
2023-02-14T00:04:20.497Z,1021.38
2023-02-14T00:04:30.459Z,1021.38
2023-02-14T00:04:40.434Z,1021.36
2023-02-14T00:04:50.471Z,1021.38
2023-02-14T00:05:00.966Z,1021.39
2023-02-14T00:05:10.423Z,1021.40
2023-02-14T00:05:20.407Z,1021.38
2023-02-14T00:05:30.388Z,1021.38
2023-02-14T00:05:40.402Z,1021.37
2023-02-14T00:05:50.392Z,1021.36
2023-02-14T00:06:00.406Z,1021.40
2023-02-14T00:06:10.408Z,1021.37
2023-02-14T00:06:20.426Z,1021.36
2023-02-14T00:06:30.380Z,1021.41
2023-02-14T00:06:40.383Z,1021.38
2023-02-14T00:06:50.380Z,1021.38
2023-02-14T00:07:00.379Z,1021.35
2023-02-14T00:07:10.964Z,1021.41
2023-02-14T00:07:20.439Z,1021.38
2023-02-14T00:07:30.992Z,1021.40
2023-02-14T00:07:40.414Z,1021.40
2023-02-14T00:07:52.954Z,1021.40
2023-02-14T00:08:00.385Z,1021.41
2023-02-14T00:08:10.408Z,1021.37
2023-02-14T00:08:20.376Z,1021.38
2023-02-14T00:08:30.396Z,1021.37
2023-02-14T00:08:40.370Z,1021.39
2023-02-14T00:08:50.366Z,1021.39
2023-02-14T00:09:00.371Z,1021.35
2023-02-14T00:09:10.426Z,1021.39
2023-02-14T00:09:20.375Z,1021.36
2023-02-14T00:09:30.373Z,1021.38
2023-02-14T00:09:40.368Z,1021.35
2023-02-14T00:09:50.368Z,1021.36
2023-02-14T00:10:00.438Z,1021.40
2023-02-14T00:10:10.481Z,1021.36
2023-02-14T00:10:20.434Z,1021.35
2023-02-14T00:10:30.381Z,1021.37
2023-02-14T00:10:40.439Z,1021.34
2023-02-14T00:10:50.965Z,1021.32
2023-02-14T00:11:00.763Z,1021.32
2023-02-14T00:11:10.356Z,1021.37
2023-02-14T00:11:20.372Z,1021.32
2023-02-14T00:11:30.361Z,1021.36
2023-02-14T00:11:40.358Z,1021.34
2023-02-14T00:11:50.367Z,1021.33
2023-02-14T00:12:00.506Z,1021.35
2023-02-14T00:12:10.353Z,1021.35
2023-02-14T00:12:20.406Z,1021.34
2023-02-14T00:12:30.355Z,1021.35
2023-02-14T00:12:40.351Z,1021.33
2023-02-14T00:12:50.386Z,1021.35
2023-02-14T00:13:00.420Z,1021.39
2023-02-14T00:13:10.350Z,1021.34
2023-02-14T00:13:20.386Z,1021.32
2023-02-14T00:13:30.360Z,1021.32
2023-02-14T00:13:40.347Z,1021.31
2023-02-14T00:13:50.382Z,1021.34
2023-02-14T00:14:00.351Z,1021.38
2023-02-14T00:14:10.354Z,1021.31
2023-02-14T00:14:20.344Z,1021.32
2023-02-14T00:14:30.363Z,1021.33
2023-02-14T00:14:40.375Z,1021.37
2023-02-14T00:14:51.025Z,1021.35
2023-02-14T00:15:00.337Z,1021.36
2023-02-14T00:15:10.361Z,1021.34
2023-02-14T00:15:20.337Z,1021.36
2023-02-14T00:15:30.352Z,1021.35
2023-02-14T00:15:40.506Z,1021.31
2023-02-14T00:15:50.979Z,1021.31
2023-02-14T00:16:00.469Z,1021.34
2023-02-14T00:16:11.048Z,1021.39
2023-02-14T00:16:20.641Z,1021.39
2023-02-14T00:16:30.394Z,1021.39
2023-02-14T00:16:40.355Z,1021.33
2023-02-14T00:16:50.339Z,1021.38
2023-02-14T00:17:00.352Z,1021.37
2023-02-14T00:17:10.329Z,1021.37
2023-02-14T00:17:20.337Z,1021.35
2023-02-14T00:17:30.478Z,1021.32
2023-02-14T00:17:40.412Z,1021.38
2023-02-14T00:17:50.329Z,1021.37
2023-02-14T00:18:00.384Z,1021.37
2023-02-14T00:18:10.403Z,1021.37
2023-02-14T00:18:20.324Z,1021.35
2023-02-14T00:18:30.339Z,1021.32
2023-02-14T00:18:40.371Z,1021.35
2023-02-14T00:18:50.328Z,1021.36
2023-02-14T00:19:00.992Z,1021.34
2023-02-14T00:19:10.368Z,1021.36
2023-02-14T00:19:20.321Z,1021.35
2023-02-14T00:19:30.361Z,1021.39
2023-02-14T00:19:40.328Z,1021.34
2023-02-14T00:19:50.356Z,1021.36
2023-02-14T00:20:00.357Z,1021.30
2023-02-14T00:20:10.368Z,1021.30
2023-02-14T00:20:20.339Z,1021.32
2023-02-14T00:20:30.456Z,1021.38
2023-02-14T00:20:40.325Z,1021.35
2023-02-14T00:20:50.954Z,1021.34
2023-02-14T00:21:01.038Z,1021.31
2023-02-14T00:21:10.310Z,1021.30
2023-02-14T00:21:20.350Z,1021.32
2023-02-14T00:21:30.311Z,1021.31
2023-02-14T00:21:40.308Z,1021.34
2023-02-14T00:21:50.953Z,1021.35
2023-02-14T00:22:00.313Z,1021.35
2023-02-14T00:22:10.307Z,1021.37
2023-02-14T00:22:20.385Z,1021.33
2023-02-14T00:22:30.315Z,1021.34
2023-02-14T00:22:40.366Z,1021.34
2023-02-14T00:22:50.346Z,1021.33
2023-02-14T00:23:00.317Z,1021.33
2023-02-14T00:23:10.325Z,1021.39
2023-02-14T00:23:20.322Z,1021.37
2023-02-14T00:23:30.309Z,1021.34
2023-02-14T00:23:40.422Z,1021.37
2023-02-14T00:23:50.312Z,1021.32
2023-02-14T00:24:00.300Z,1021.35
2023-02-14T00:24:10.331Z,1021.34
2023-02-14T00:24:20.294Z,1021.36
2023-02-14T00:24:30.303Z,1021.33
2023-02-14T00:24:40.433Z,1021.30
2023-02-14T00:24:50.311Z,1021.30
2023-02-14T00:25:00.305Z,1021.33
2023-02-14T00:25:10.328Z,1021.34
2023-02-14T00:25:20.291Z,1021.30
2023-02-14T00:25:30.293Z,1021.32
2023-02-14T00:25:40.337Z,1021.30
2023-02-14T00:25:50.313Z,1021.34
2023-02-14T00:26:00.953Z,1021.29
2023-02-14T00:26:10.338Z,1021.30
2023-02-14T00:26:20.285Z,1021.34
2023-02-14T00:26:30.296Z,1021.29
2023-02-14T00:26:40.345Z,1021.30
2023-02-14T00:26:50.289Z,1021.29
2023-02-14T00:27:00.307Z,1021.31
2023-02-14T00:27:10.293Z,1021.34
2023-02-14T00:27:20.290Z,1021.33
2023-02-14T00:27:30.429Z,1021.29
2023-02-14T00:27:40.310Z,1021.31
2023-02-14T00:27:50.970Z,1021.31
2023-02-14T00:28:00.314Z,1021.31
2023-02-14T00:28:10.280Z,1021.31
2023-02-14T00:28:20.296Z,1021.31
2023-02-14T00:28:30.958Z,1021.31
2023-02-14T00:28:40.285Z,1021.33
2023-02-14T00:28:51.006Z,1021.32
2023-02-14T00:29:00.273Z,1021.33
2023-02-14T00:29:10.301Z,1021.30
2023-02-14T00:29:20.318Z,1021.33
2023-02-14T00:29:30.327Z,1021.34
2023-02-14T00:29:40.272Z,1021.31
2023-02-14T00:29:50.324Z,1021.34
2023-02-14T00:30:00.319Z,1021.32
2023-02-14T00:30:10.441Z,1021.34
2023-02-14T00:30:20.436Z,1021.31
2023-02-14T00:30:30.441Z,1021.27
2023-02-14T00:30:40.320Z,1021.31
2023-02-14T00:30:50.359Z,1021.27
2023-02-14T00:31:00.725Z,1021.34
2023-02-14T00:31:10.494Z,1021.32
2023-02-14T00:31:20.391Z,1021.29
2023-02-14T00:31:30.416Z,1021.27
2023-02-14T00:31:40.533Z,1021.31
2023-02-14T00:31:50.320Z,1021.27
2023-02-14T00:32:00.343Z,1021.34
2023-02-14T00:32:10.344Z,1021.32
2023-02-14T00:32:20.263Z,1021.29
2023-02-14T00:32:30.267Z,1021.27
2023-02-14T00:32:40.304Z,1021.33
2023-02-14T00:32:50.270Z,1021.31
2023-02-14T00:33:00.505Z,1021.33
2023-02-14T00:33:10.289Z,1021.29
2023-02-14T00:33:20.255Z,1021.26
2023-02-14T00:33:30.266Z,1021.28
2023-02-14T00:33:41.033Z,1021.26
2023-02-14T00:33:50.267Z,1021.30
2023-02-14T00:34:00.254Z,1021.31
2023-02-14T00:34:10.284Z,1021.34
2023-02-14T00:34:20.290Z,1021.31
2023-02-14T00:34:30.275Z,1021.32
2023-02-14T00:34:40.252Z,1021.32
2023-02-14T00:34:50.260Z,1021.29
2023-02-14T00:35:00.263Z,1021.28
2023-02-14T00:35:10.250Z,1021.29
2023-02-14T00:35:20.296Z,1021.28
2023-02-14T00:35:30.278Z,1021.28
2023-02-14T00:35:40.957Z,1021.31
2023-02-14T00:35:50.362Z,1021.29
2023-02-14T00:36:00.257Z,1021.33
2023-02-14T00:36:10.255Z,1021.30
2023-02-14T00:36:20.242Z,1021.33
2023-02-14T00:36:30.294Z,1021.29
2023-02-14T00:36:40.253Z,1021.32
2023-02-14T00:36:50.247Z,1021.35
2023-02-14T00:37:00.264Z,1021.30
2023-02-14T00:37:10.276Z,1021.30
2023-02-14T00:37:20.255Z,1021.30
2023-02-14T00:37:30.286Z,1021.34
2023-02-14T00:37:40.272Z,1021.30
2023-02-14T00:37:50.274Z,1021.28
2023-02-14T00:38:00.240Z,1021.29
2023-02-14T00:38:10.521Z,1021.33
2023-02-14T00:38:20.237Z,1021.36
2023-02-14T00:38:30.234Z,1021.33
2023-02-14T00:38:40.346Z,1021.31
2023-02-14T00:38:50.251Z,1021.35
2023-02-14T00:39:00.236Z,1021.35
2023-02-14T00:39:10.272Z,1021.32
2023-02-14T00:39:20.262Z,1021.33
2023-02-14T00:39:30.299Z,1021.32
2023-02-14T00:39:40.238Z,1021.36
2023-02-14T00:39:50.284Z,1021.35
2023-02-14T00:40:01.110Z,1021.32
2023-02-14T00:40:10.254Z,1021.35
2023-02-14T00:40:20.265Z,1021.31
2023-02-14T00:40:30.225Z,1021.32
2023-02-14T00:40:40.240Z,1021.32
2023-02-14T00:40:50.278Z,1021.35
2023-02-14T00:41:00.608Z,1021.29
2023-02-14T00:41:10.241Z,1021.34
2023-02-14T00:41:20.384Z,1021.35
2023-02-14T00:41:30.253Z,1021.36
2023-02-14T00:41:40.242Z,1021.31
2023-02-14T00:41:50.224Z,1021.33
2023-02-14T00:42:00.252Z,1021.30
2023-02-14T00:42:10.259Z,1021.32
2023-02-14T00:42:20.226Z,1021.31
2023-02-14T00:42:30.220Z,1021.34
2023-02-14T00:42:40.363Z,1021.30
2023-02-14T00:42:50.237Z,1021.36
2023-02-14T00:43:00.230Z,1021.31
2023-02-14T00:43:10.240Z,1021.34
2023-02-14T00:43:20.282Z,1021.32
2023-02-14T00:43:30.231Z,1021.32
2023-02-14T00:43:40.277Z,1021.34
2023-02-14T00:43:50.237Z,1021.30
2023-02-14T00:44:00.226Z,1021.33
2023-02-14T00:44:10.963Z,1021.31
2023-02-14T00:44:20.244Z,1021.29
2023-02-14T00:44:30.232Z,1021.34
2023-02-14T00:44:40.213Z,1021.34
2023-02-14T00:44:50.225Z,1021.37
2023-02-14T00:45:00.231Z,1021.32
2023-02-14T00:45:10.242Z,1021.33
2023-02-14T00:45:20.204Z,1021.30
2023-02-14T00:45:30.271Z,1021.32
2023-02-14T00:45:40.279Z,1021.30
2023-02-14T00:45:50.270Z,1021.32
2023-02-14T00:46:00.288Z,1021.27
2023-02-14T00:46:10.289Z,1021.25
2023-02-14T00:46:20.216Z,1021.27
2023-02-14T00:46:30.230Z,1021.31
2023-02-14T00:46:40.214Z,1021.28
2023-02-14T00:46:50.199Z,1021.30
2023-02-14T00:47:00.352Z,1021.29
2023-02-14T00:47:10.198Z,1021.25
2023-02-14T00:47:20.243Z,1021.26
2023-02-14T00:47:30.201Z,1021.31
2023-02-14T00:47:40.226Z,1021.32
2023-02-14T00:47:50.203Z,1021.31
2023-02-14T00:48:00.342Z,1021.33
2023-02-14T00:48:10.252Z,1021.34
2023-02-14T00:48:20.263Z,1021.30
2023-02-14T00:48:30.506Z,1021.33
2023-02-14T00:48:40.195Z,1021.29
2023-02-14T00:48:50.224Z,1021.32
2023-02-14T00:49:00.207Z,1021.33
2023-02-14T00:49:10.204Z,1021.30
2023-02-14T00:49:20.188Z,1021.30
2023-02-14T00:49:30.186Z,1021.26
2023-02-14T00:49:40.311Z,1021.30
2023-02-14T00:49:50.317Z,1021.30
2023-02-14T00:50:00.969Z,1021.26
2023-02-14T00:50:10.184Z,1021.31
2023-02-14T00:50:20.177Z,1021.30
2023-02-14T00:50:30.186Z,1021.29
2023-02-14T00:50:40.196Z,1021.26
2023-02-14T00:50:50.226Z,1021.28
2023-02-14T00:51:00.637Z,1021.29
2023-02-14T00:51:10.241Z,1021.31
2023-02-14T00:51:20.185Z,1021.29
2023-02-14T00:51:30.179Z,1021.27
2023-02-14T00:51:40.360Z,1021.26
2023-02-14T00:51:50.184Z,1021.30
2023-02-14T00:52:00.992Z,1021.26
2023-02-14T00:52:10.184Z,1021.27
2023-02-14T00:52:20.190Z,1021.26
2023-02-14T00:52:31.040Z,1021.28
2023-02-14T00:52:40.348Z,1021.29
2023-02-14T00:52:50.169Z,1021.27
2023-02-14T00:53:00.185Z,1021.26
2023-02-14T00:53:10.168Z,1021.27
2023-02-14T00:53:20.194Z,1021.28
2023-02-14T00:53:30.190Z,1021.29
2023-02-14T00:53:40.253Z,1021.29
2023-02-14T00:53:50.979Z,1021.25
2023-02-14T00:54:00.305Z,1021.25
2023-02-14T00:54:10.168Z,1021.27
2023-02-14T00:54:20.163Z,1021.29
2023-02-14T00:54:30.211Z,1021.28
2023-02-14T00:54:40.174Z,1021.26
2023-02-14T00:54:50.162Z,1021.30
2023-02-14T00:55:00.245Z,1021.24
2023-02-14T00:55:10.176Z,1021.28
2023-02-14T00:55:20.998Z,1021.27
2023-02-14T00:55:30.195Z,1021.24
2023-02-14T00:55:40.178Z,1021.25
2023-02-14T00:55:50.184Z,1021.30
2023-02-14T00:56:00.985Z,1021.25
2023-02-14T00:56:10.199Z,1021.26
2023-02-14T00:56:20.157Z,1021.29
2023-02-14T00:56:30.153Z,1021.25
2023-02-14T00:56:40.179Z,1021.27
2023-02-14T00:56:50.192Z,1021.27
2023-02-14T00:57:00.166Z,1021.24
2023-02-14T00:57:10.163Z,1021.28
2023-02-14T00:57:20.197Z,1021.25
2023-02-14T00:57:30.149Z,1021.31
2023-02-14T00:57:40.149Z,1021.24
2023-02-14T00:57:50.186Z,1021.28
2023-02-14T00:58:00.214Z,1021.26
2023-02-14T00:58:10.286Z,1021.29
2023-02-14T00:58:20.180Z,1021.32
2023-02-14T00:58:30.165Z,1021.25
2023-02-14T00:58:40.151Z,1021.25
2023-02-14T00:58:50.241Z,1021.27
2023-02-14T00:59:00.175Z,1021.25
2023-02-14T00:59:10.280Z,1021.26
2023-02-14T00:59:20.137Z,1021.24
2023-02-14T00:59:30.983Z,1021.24
2023-02-14T00:59:40.396Z,1021.26
2023-02-14T00:59:50.137Z,1021.26
2023-02-14T01:00:00.183Z,1021.25
2023-02-14T01:00:10.313Z,1021.23
2023-02-14T01:00:20.143Z,1021.25
2023-02-14T01:00:30.194Z,1021.19
2023-02-14T01:00:40.247Z,1021.22
2023-02-14T01:00:51.092Z,1021.21
2023-02-14T01:01:01.432Z,1021.24
2023-02-14T01:01:10.221Z,1021.23
2023-02-14T01:01:20.216Z,1021.20
2023-02-14T01:01:30.159Z,1021.25
2023-02-14T01:01:40.127Z,1021.27
2023-02-14T01:01:50.154Z,1021.26
2023-02-14T01:02:00.142Z,1021.22
2023-02-14T01:02:10.215Z,1021.26
2023-02-14T01:02:20.286Z,1021.27
2023-02-14T01:02:30.244Z,1021.24
2023-02-14T01:02:40.188Z,1021.23
2023-02-14T01:02:50.180Z,1021.27
2023-02-14T01:03:00.161Z,1021.24
2023-02-14T01:03:10.130Z,1021.26
2023-02-14T01:03:20.120Z,1021.24
2023-02-14T01:03:30.143Z,1021.26
2023-02-14T01:03:40.134Z,1021.23
2023-02-14T01:03:50.122Z,1021.26
2023-02-14T01:04:00.304Z,1021.24
2023-02-14T01:04:10.142Z,1021.22
2023-02-14T01:04:20.283Z,1021.23
2023-02-14T01:04:30.148Z,1021.21
2023-02-14T01:04:40.145Z,1021.26
2023-02-14T01:04:50.134Z,1021.25
2023-02-14T01:05:00.198Z,1021.20
2023-02-14T01:05:10.254Z,1021.24
2023-02-14T01:05:20.136Z,1021.18
2023-02-14T01:05:30.118Z,1021.19
2023-02-14T01:05:40.119Z,1021.17
2023-02-14T01:05:50.154Z,1021.16
2023-02-14T01:06:00.122Z,1021.19
2023-02-14T01:06:10.109Z,1021.15
2023-02-14T01:06:20.136Z,1021.18
2023-02-14T01:06:30.990Z,1021.20
2023-02-14T01:06:40.115Z,1021.17
2023-02-14T01:06:50.153Z,1021.17
2023-02-14T01:07:00.105Z,1021.19
2023-02-14T01:07:10.114Z,1021.20
2023-02-14T01:07:20.140Z,1021.20
2023-02-14T01:07:30.109Z,1021.21
2023-02-14T01:07:40.118Z,1021.18
2023-02-14T01:07:50.137Z,1021.19
2023-02-14T01:08:00.140Z,1021.25
2023-02-14T01:08:10.977Z,1021.22
2023-02-14T01:08:20.110Z,1021.18
2023-02-14T01:08:30.127Z,1021.18
2023-02-14T01:08:40.137Z,1021.23
2023-02-14T01:08:50.103Z,1021.18
2023-02-14T01:09:00.115Z,1021.19
2023-02-14T01:09:10.175Z,1021.22
2023-02-14T01:09:20.180Z,1021.20
2023-02-14T01:09:30.102Z,1021.19
2023-02-14T01:09:40.107Z,1021.20
2023-02-14T01:09:50.103Z,1021.21
2023-02-14T01:10:00.144Z,1021.21
2023-02-14T01:10:10.096Z,1021.21
2023-02-14T01:10:20.129Z,1021.16
2023-02-14T01:10:30.091Z,1021.21
2023-02-14T01:10:40.135Z,1021.21
2023-02-14T01:10:50.117Z,1021.25
2023-02-14T01:11:00.571Z,1021.23
2023-02-14T01:11:10.091Z,1021.24
2023-02-14T01:11:20.104Z,1021.20
2023-02-14T01:11:30.458Z,1021.26
2023-02-14T01:11:40.086Z,1021.21
2023-02-14T01:11:50.090Z,1021.22
2023-02-14T01:12:00.139Z,1021.27
2023-02-14T01:12:10.092Z,1021.25
2023-02-14T01:12:20.109Z,1021.23
2023-02-14T01:12:30.118Z,1021.20
2023-02-14T01:12:40.095Z,1021.20
2023-02-14T01:12:50.131Z,1021.20
2023-02-14T01:13:00.203Z,1021.19
2023-02-14T01:13:10.145Z,1021.21
2023-02-14T01:13:20.104Z,1021.20
2023-02-14T01:13:30.979Z,1021.19
2023-02-14T01:13:40.116Z,1021.18
2023-02-14T01:13:50.089Z,1021.22
2023-02-14T01:14:00.156Z,1021.23
2023-02-14T01:14:10.108Z,1021.20
2023-02-14T01:14:20.187Z,1021.21
2023-02-14T01:14:30.074Z,1021.18
2023-02-14T01:14:40.139Z,1021.19
2023-02-14T01:14:50.115Z,1021.19
2023-02-14T01:15:00.993Z,1021.17
2023-02-14T01:15:10.078Z,1021.22
2023-02-14T01:15:20.126Z,1021.21
2023-02-14T01:15:30.094Z,1021.18
2023-02-14T01:15:40.114Z,1021.20
2023-02-14T01:15:50.089Z,1021.20
2023-02-14T01:16:00.087Z,1021.16
2023-02-14T01:16:10.168Z,1021.20
2023-02-14T01:16:20.252Z,1021.18
2023-02-14T01:16:30.289Z,1021.16
2023-02-14T01:16:40.139Z,1021.16
2023-02-14T01:16:50.184Z,1021.17
2023-02-14T01:17:00.129Z,1021.14
2023-02-14T01:17:10.193Z,1021.13
2023-02-14T01:17:20.096Z,1021.12
2023-02-14T01:17:30.088Z,1021.15
2023-02-14T01:17:40.993Z,1021.18
2023-02-14T01:17:50.054Z,1021.15
2023-02-14T01:18:00.101Z,1021.13
2023-02-14T01:18:10.054Z,1021.13
2023-02-14T01:18:20.060Z,1021.15
2023-02-14T01:18:30.067Z,1021.13
2023-02-14T01:18:40.993Z,1021.13
2023-02-14T01:18:50.065Z,1021.11
2023-02-14T01:19:00.075Z,1021.13
2023-02-14T01:19:10.075Z,1021.13
2023-02-14T01:19:20.068Z,1021.16
2023-02-14T01:19:30.195Z,1021.13
2023-02-14T01:19:40.051Z,1021.16
2023-02-14T01:19:50.076Z,1021.12
2023-02-14T01:20:00.149Z,1021.14
2023-02-14T01:20:10.114Z,1021.15
2023-02-14T01:20:20.078Z,1021.09
2023-02-14T01:20:30.116Z,1021.13
2023-02-14T01:20:40.047Z,1021.14
2023-02-14T01:20:50.081Z,1021.15
2023-02-14T01:21:01.321Z,1021.16
2023-02-14T01:21:10.042Z,1021.09
2023-02-14T01:21:20.051Z,1021.12
2023-02-14T01:21:30.086Z,1021.10
2023-02-14T01:21:40.048Z,1021.09
2023-02-14T01:21:51.008Z,1021.07
2023-02-14T01:22:00.097Z,1021.10
2023-02-14T01:22:10.057Z,1021.09
2023-02-14T01:22:20.037Z,1021.09
2023-02-14T01:22:30.045Z,1021.10
2023-02-14T01:22:40.067Z,1021.11
2023-02-14T01:22:50.056Z,1021.08
2023-02-14T01:23:00.040Z,1021.07
2023-02-14T01:23:10.071Z,1021.13
2023-02-14T01:23:20.033Z,1021.14
2023-02-14T01:23:30.987Z,1021.14
2023-02-14T01:23:40.057Z,1021.08
2023-02-14T01:23:50.046Z,1021.12
2023-02-14T01:24:00.108Z,1021.11
2023-02-14T01:24:10.067Z,1021.14
2023-02-14T01:24:20.049Z,1021.12
2023-02-14T01:24:30.029Z,1021.10
2023-02-14T01:24:40.595Z,1021.13
2023-02-14T01:24:50.030Z,1021.15
2023-02-14T01:25:00.051Z,1021.09
2023-02-14T01:25:10.045Z,1021.11
2023-02-14T01:25:20.078Z,1021.13
2023-02-14T01:25:30.032Z,1021.08
2023-02-14T01:25:40.098Z,1021.08
2023-02-14T01:25:50.985Z,1021.10
2023-02-14T01:26:00.050Z,1021.11
2023-02-14T01:26:10.053Z,1021.10
2023-02-14T01:26:20.154Z,1021.12
2023-02-14T01:26:30.015Z,1021.06
2023-02-14T01:26:40.033Z,1021.10
2023-02-14T01:26:50.024Z,1021.07
2023-02-14T01:27:00.074Z,1021.09
2023-02-14T01:27:10.124Z,1021.10
2023-02-14T01:27:20.029Z,1021.09
2023-02-14T01:27:30.174Z,1021.10
2023-02-14T01:27:40.038Z,1021.08
2023-02-14T01:27:50.038Z,1021.08
2023-02-14T01:28:00.088Z,1021.11
2023-02-14T01:28:10.039Z,1021.10
2023-02-14T01:28:20.013Z,1021.13
2023-02-14T01:28:30.071Z,1021.06
2023-02-14T01:28:40.072Z,1021.05
2023-02-14T01:28:51.172Z,1021.10
2023-02-14T01:29:00.015Z,1021.09
2023-02-14T01:29:10.006Z,1021.11
2023-02-14T01:29:20.008Z,1021.09
2023-02-14T01:29:30.128Z,1021.10
2023-02-14T01:29:40.018Z,1021.12
2023-02-14T01:29:50.586Z,1021.14
2023-02-14T01:30:00.261Z,1021.15
2023-02-14T01:30:11.218Z,1021.12
2023-02-14T01:30:20.091Z,1021.11
2023-02-14T01:30:30.089Z,1021.11
2023-02-14T01:30:40.027Z,1021.11
2023-02-14T01:30:50.037Z,1021.11
2023-02-14T01:31:00.410Z,1021.12
2023-02-14T01:31:10.082Z,1021.09
2023-02-14T01:31:20.204Z,1021.10
2023-02-14T01:31:30.244Z,1021.09
2023-02-14T01:31:40.222Z,1021.10
2023-02-14T01:31:50.057Z,1021.08
2023-02-14T01:32:00.305Z,1021.08
2023-02-14T01:32:10.100Z,1021.06
2023-02-14T01:32:20.234Z,1021.06
2023-02-14T01:32:29.988Z,1021.07
2023-02-14T01:32:40.069Z,1021.09
2023-02-14T01:32:50.071Z,1021.08
2023-02-14T01:33:00.093Z,1021.04
2023-02-14T01:33:10.028Z,1021.06
2023-02-14T01:33:19.985Z,1021.05
2023-02-14T01:33:29.999Z,1021.04
2023-02-14T01:33:40.000Z,1021.06
2023-02-14T01:33:50.102Z,1021.05
2023-02-14T01:34:00.099Z,1021.03
2023-02-14T01:34:09.986Z,1021.03
2023-02-14T01:34:20.029Z,1021.04
2023-02-14T01:34:30.122Z,1021.07
2023-02-14T01:34:39.989Z,1021.04
2023-02-14T01:34:50.483Z,1021.07
2023-02-14T01:35:00.108Z,1021.04
2023-02-14T01:35:09.993Z,1021.07
2023-02-14T01:35:19.981Z,1021.00
2023-02-14T01:35:29.985Z,1021.01
2023-02-14T01:35:40.056Z,1021.01
2023-02-14T01:35:50.563Z,1021.04
2023-02-14T01:36:00.018Z,1021.05
2023-02-14T01:36:09.991Z,1021.08
2023-02-14T01:36:19.985Z,1021.02
2023-02-14T01:36:29.989Z,1021.02
2023-02-14T01:36:40.018Z,1021.04
2023-02-14T01:36:50.092Z,1021.00
2023-02-14T01:37:00.547Z,1020.99
2023-02-14T01:37:10.115Z,1020.99
2023-02-14T01:37:19.974Z,1020.95
2023-02-14T01:37:29.991Z,1020.98
2023-02-14T01:37:40.030Z,1020.93
2023-02-14T01:37:49.997Z,1020.97
2023-02-14T01:37:59.988Z,1020.97
2023-02-14T01:38:09.972Z,1020.98
2023-02-14T01:38:19.999Z,1020.99
2023-02-14T01:38:29.980Z,1020.98
2023-02-14T01:38:40.086Z,1020.99
2023-02-14T01:38:49.965Z,1020.99
2023-02-14T01:39:00.121Z,1020.96
2023-02-14T01:39:09.980Z,1020.94
2023-02-14T01:39:19.974Z,1020.94
2023-02-14T01:39:29.962Z,1020.96
2023-02-14T01:39:39.982Z,1020.98
2023-02-14T01:39:49.973Z,1020.96
2023-02-14T01:40:00.524Z,1020.94
2023-02-14T01:40:10.953Z,1020.96
2023-02-14T01:40:19.965Z,1020.99
2023-02-14T01:40:30.048Z,1020.97
2023-02-14T01:40:39.974Z,1020.96
2023-02-14T01:40:50.017Z,1020.98
2023-02-14T01:41:00.298Z,1020.94
2023-02-14T01:41:09.957Z,1020.95
2023-02-14T01:41:20.089Z,1020.95
2023-02-14T01:41:29.967Z,1020.96
2023-02-14T01:41:39.988Z,1020.98
2023-02-14T01:41:49.988Z,1020.97
2023-02-14T01:41:59.956Z,1020.97
2023-02-14T01:42:09.957Z,1020.93
2023-02-14T01:42:19.992Z,1020.97
2023-02-14T01:42:29.981Z,1020.91
2023-02-14T01:42:40.646Z,1020.96
2023-02-14T01:42:50.097Z,1020.96
2023-02-14T01:42:59.961Z,1020.96
2023-02-14T01:43:09.959Z,1020.93
2023-02-14T01:43:20.138Z,1020.93
2023-02-14T01:43:30.077Z,1020.91
2023-02-14T01:43:39.964Z,1020.95
2023-02-14T01:43:50.202Z,1020.96
2023-02-14T01:44:00.031Z,1020.97
2023-02-14T01:44:10.494Z,1020.94
2023-02-14T01:44:20.118Z,1020.96
2023-02-14T01:44:29.945Z,1020.90
2023-02-14T01:44:39.975Z,1020.97
2023-02-14T01:44:49.954Z,1020.94
2023-02-14T01:45:00.042Z,1020.95
2023-02-14T01:45:09.942Z,1020.95
2023-02-14T01:45:20.005Z,1020.94
2023-02-14T01:45:30.003Z,1020.99
2023-02-14T01:45:40.104Z,1020.90
2023-02-14T01:45:49.989Z,1020.90
2023-02-14T01:46:00.048Z,1020.94
2023-02-14T01:46:10.045Z,1020.96
2023-02-14T01:46:19.945Z,1020.93
2023-02-14T01:46:30.005Z,1020.90
2023-02-14T01:46:39.931Z,1020.94
2023-02-14T01:46:49.952Z,1020.93
2023-02-14T01:47:00.013Z,1020.96
2023-02-14T01:47:09.990Z,1020.93
2023-02-14T01:47:19.926Z,1020.96
2023-02-14T01:47:29.945Z,1020.96
2023-02-14T01:47:39.954Z,1020.95
2023-02-14T01:47:49.937Z,1020.93
2023-02-14T01:47:59.930Z,1020.93
2023-02-14T01:48:09.940Z,1020.93
2023-02-14T01:48:19.954Z,1020.92
2023-02-14T01:48:29.945Z,1020.93
2023-02-14T01:48:39.932Z,1020.92
2023-02-14T01:48:49.965Z,1020.96
2023-02-14T01:48:59.982Z,1020.93
2023-02-14T01:49:09.931Z,1020.98
2023-02-14T01:49:20.002Z,1020.94
2023-02-14T01:49:29.960Z,1020.93
2023-02-14T01:49:39.936Z,1020.96
2023-02-14T01:49:50.039Z,1020.93
2023-02-14T01:49:59.932Z,1020.93
2023-02-14T01:50:09.922Z,1020.95
2023-02-14T01:50:19.951Z,1020.94
2023-02-14T01:50:30.024Z,1020.96
2023-02-14T01:50:39.939Z,1020.92
2023-02-14T01:50:49.940Z,1020.96
2023-02-14T01:51:00.264Z,1020.93
2023-02-14T01:51:09.972Z,1020.91
2023-02-14T01:51:19.953Z,1020.94
2023-02-14T01:51:29.949Z,1020.93
2023-02-14T01:51:39.931Z,1020.95
2023-02-14T01:51:49.909Z,1020.89
2023-02-14T01:52:00.909Z,1020.93
2023-02-14T01:52:09.912Z,1020.93
2023-02-14T01:52:19.968Z,1020.91
2023-02-14T01:52:29.947Z,1020.91
2023-02-14T01:52:39.901Z,1020.92
2023-02-14T01:52:49.902Z,1020.89
2023-02-14T01:52:59.908Z,1020.90
2023-02-14T01:53:09.944Z,1020.93
2023-02-14T01:53:19.906Z,1020.93
2023-02-14T01:53:29.935Z,1020.95
2023-02-14T01:53:39.912Z,1020.87
2023-02-14T01:53:50.522Z,1020.89
2023-02-14T01:54:00.511Z,1020.90
2023-02-14T01:54:09.931Z,1020.96
2023-02-14T01:54:19.906Z,1020.92
2023-02-14T01:54:29.945Z,1020.95
2023-02-14T01:54:39.949Z,1020.92
2023-02-14T01:54:49.920Z,1020.93
2023-02-14T01:54:59.949Z,1020.93
2023-02-14T01:55:09.966Z,1020.93
2023-02-14T01:55:19.922Z,1020.95
2023-02-14T01:55:29.904Z,1020.92
2023-02-14T01:55:39.970Z,1020.91
2023-02-14T01:55:49.920Z,1020.91
2023-02-14T01:55:59.942Z,1020.97
2023-02-14T01:56:09.910Z,1020.91
2023-02-14T01:56:19.896Z,1020.92
2023-02-14T01:56:29.920Z,1020.92
2023-02-14T01:56:39.899Z,1020.91
2023-02-14T01:56:49.893Z,1020.94
2023-02-14T01:56:59.909Z,1020.94
2023-02-14T01:57:09.894Z,1020.92
2023-02-14T01:57:19.925Z,1020.96
2023-02-14T01:57:29.923Z,1020.92
2023-02-14T01:57:39.886Z,1020.95
2023-02-14T01:57:49.885Z,1020.96
2023-02-14T01:57:59.938Z,1020.93
2023-02-14T01:58:10.496Z,1020.95
2023-02-14T01:58:19.910Z,1020.91
2023-02-14T01:58:29.901Z,1020.95
2023-02-14T01:58:39.880Z,1020.97
2023-02-14T01:58:49.986Z,1020.93
2023-02-14T01:58:59.952Z,1020.95
2023-02-14T01:59:09.908Z,1020.92
2023-02-14T01:59:19.912Z,1020.97
2023-02-14T01:59:30.553Z,1020.96
2023-02-14T01:59:40.026Z,1020.97
2023-02-14T01:59:49.916Z,1020.97
2023-02-14T01:59:59.947Z,1020.92
2023-02-14T02:00:09.887Z,1021.00
2023-02-14T02:00:19.886Z,1020.96
2023-02-14T02:00:29.890Z,1021.01
2023-02-14T02:00:39.875Z,1021.01
2023-02-14T02:00:50.002Z,1020.98